Dorena, Oregon
Current Conditions -  °F | °C
As of 11:19 AM on Friday 31 Oct 2014 (Local Time) from KEUG Reporting Station
Broken Clouds Broken Clouds  
Wind Chill: 54°   Ceiling: 1500
Heat Index: 54°   Visibility: 10mi
Dew Point: 50°   Wind: 6mph
Humidity: 86%   Direction: 200°SSW
Pressure: 29.86"   Gusts: NA
Location:  43.72°N, 122.86°W
Report Text: KEUG 311819Z 20005KT 10SM BKN015 BKN055 12/10 A2986 RMK AO2 T01220100
Loading
Personal Weather Stations






























Interactive Weather Map
Tropical Storm Tracking
New forecast layout! Learn more

10-Day Weather Forecast

Advertisements
Track Severe Weather on mobile